createdAt,value
2017-10-10T00:00:18.168Z,0
2017-10-10T00:01:18.167Z,0
2017-10-10T00:02:18.170Z,0
2017-10-10T00:03:18.125Z,0
2017-10-10T00:04:17.921Z,0
2017-10-10T00:05:18.465Z,0
2017-10-10T00:06:17.804Z,0
2017-10-10T00:07:18.449Z,0
2017-10-10T00:08:18.220Z,0
2017-10-10T00:09:18.109Z,0
2017-10-10T00:10:17.454Z,0
2017-10-10T00:11:18.095Z,0
2017-10-10T00:12:18.422Z,0
2017-10-10T00:13:17.585Z,0
2017-10-10T00:14:17.749Z,0
2017-10-10T00:15:18.094Z,0
2017-10-10T00:16:18.059Z,0
2017-10-10T00:17:18.055Z,0
2017-10-10T00:18:17.828Z,0
2017-10-10T00:19:18.039Z,0
2017-10-10T00:20:18.127Z,0
2017-10-10T00:21:17.698Z,0
2017-10-10T00:22:18.117Z,0
2017-10-10T00:23:17.689Z,0
2017-10-10T00:24:18.003Z,0
2017-10-10T00:25:18.321Z,0
2017-10-10T00:26:17.663Z,0
2017-10-10T00:27:18.179Z,0
2017-10-10T00:28:17.971Z,0
2017-10-10T00:29:18.072Z,0
2017-10-10T00:30:17.736Z,0
2017-10-10T00:31:17.956Z,0
2017-10-10T00:32:17.622Z,0
2017-10-10T00:33:17.621Z,0
2017-10-10T00:34:17.931Z,0
2017-10-10T00:35:17.925Z,0
2017-10-10T00:36:17.592Z,0
2017-10-10T00:37:17.264Z,0
2017-10-10T00:38:18.104Z,0
2017-10-10T00:39:17.571Z,0
2017-10-10T00:40:17.896Z,0
2017-10-10T00:41:18.216Z,0
2017-10-10T00:42:17.874Z,0
2017-10-10T00:43:17.647Z,0
2017-10-10T00:44:18.287Z,0
2017-10-10T00:45:17.780Z,0
2017-10-10T00:46:17.524Z,0
2017-10-10T00:47:17.518Z,0
2017-10-10T00:48:17.508Z,0
2017-10-10T00:49:17.179Z,0
2017-10-10T00:50:17.598Z,0
2017-10-10T00:51:18.144Z,0
2017-10-10T00:52:17.159Z,0
2017-10-10T00:53:17.814Z,0
2017-10-10T00:54:17.790Z,0
2017-10-10T00:55:18.120Z,0
2017-10-10T00:56:17.872Z,0
2017-10-10T00:57:17.123Z,0
2017-10-10T00:58:17.764Z,0
2017-10-10T00:59:17.430Z,0
2017-10-10T01:00:17.624Z,0
2017-10-10T01:01:18.074Z,0
2017-10-10T01:02:17.836Z,0
2017-10-10T01:03:17.403Z,0
2017-10-10T01:04:17.394Z,0
2017-10-10T01:05:17.486Z,0
2017-10-10T01:06:17.382Z,0
2017-10-10T01:07:17.697Z,0
2017-10-10T01:08:18.115Z,0
2017-10-10T01:09:17.360Z,0
2017-10-10T01:10:17.450Z,0
2017-10-10T01:11:17.770Z,0
2017-10-10T01:12:17.667Z,0
2017-10-10T01:13:17.432Z,0
2017-10-10T01:14:17.101Z,0
2017-10-10T01:15:17.636Z,0
2017-10-10T01:16:17.956Z,0
2017-10-10T01:17:18.050Z,0
2017-10-10T01:18:17.941Z,0
2017-10-10T01:19:17.611Z,0
2017-10-10T01:20:17.616Z,0
2017-10-10T01:21:17.376Z,0
2017-10-10T01:22:18.012Z,0
2017-10-10T01:23:16.937Z,0
2017-10-10T01:24:17.250Z,0
2017-10-10T01:25:17.682Z,0
2017-10-10T01:26:17.665Z,0
2017-10-10T01:27:17.879Z,0
2017-10-10T01:28:17.321Z,0
2017-10-10T01:29:16.994Z,0
2017-10-10T01:30:16.887Z,0
2017-10-10T01:31:17.301Z,0
2017-10-10T01:32:17.196Z,0
2017-10-10T01:33:17.831Z,0
2017-10-10T01:34:17.612Z,0
2017-10-10T01:35:17.181Z,0
2017-10-10T01:36:17.639Z,0
2017-10-10T01:37:17.490Z,0
2017-10-10T01:38:17.585Z,0
2017-10-10T01:39:17.249Z,0
2017-10-10T01:40:17.458Z,0
2017-10-10T01:41:17.130Z,0
2017-10-10T01:42:17.876Z,0
2017-10-10T01:43:17.863Z,0
2017-10-10T01:44:17.533Z,0
2017-10-10T01:45:17.102Z,0
2017-10-10T01:46:17.426Z,0
2017-10-10T01:47:17.408Z,0
2017-10-10T01:48:17.411Z,0
2017-10-10T01:49:16.758Z,0
2017-10-10T01:50:16.742Z,0
2017-10-10T01:51:17.380Z,0
2017-10-10T01:52:17.054Z,0
2017-10-10T01:53:17.690Z,0
2017-10-10T01:54:17.464Z,0
2017-10-10T01:55:17.459Z,0
2017-10-10T01:56:17.124Z,0
2017-10-10T01:57:17.017Z,0
2017-10-10T01:58:17.011Z,0
2017-10-10T01:59:17.001Z,0
2017-10-10T02:00:17.317Z,0
2017-10-10T02:01:16.989Z,0
2017-10-10T02:02:17.303Z,0
2017-10-10T02:03:16.978Z,0
2017-10-10T02:04:17.291Z,0
2017-10-10T02:05:17.714Z,0
2017-10-10T02:06:17.423Z,0
2017-10-10T02:07:17.269Z,0
2017-10-10T02:08:16.935Z,0
2017-10-10T02:09:17.027Z,0
2017-10-10T02:10:17.578Z,0
2017-10-10T02:11:17.016Z,0
2017-10-10T02:12:17.667Z,0
2017-10-10T02:13:16.580Z,0
2017-10-10T02:14:17.219Z,0
2017-10-10T02:15:17.210Z,0
2017-10-10T02:16:16.656Z,0
2017-10-10T02:17:16.874Z,0
2017-10-10T02:18:17.508Z,0
2017-10-10T02:19:17.608Z,0
2017-10-10T02:20:16.624Z,0
2017-10-10T02:21:16.840Z,0
2017-10-10T02:22:17.159Z,0
2017-10-10T02:23:17.164Z,0
2017-10-10T02:24:16.496Z,0
2017-10-10T02:25:16.590Z,0
2017-10-10T02:26:16.907Z,0
2017-10-10T02:27:16.807Z,0
2017-10-10T02:28:17.115Z,0
2017-10-10T02:29:16.811Z,0
2017-10-10T02:30:17.320Z,0
2017-10-10T02:31:17.093Z,0
2017-10-10T02:32:17.093Z,0
2017-10-10T02:33:17.503Z,0
2017-10-10T02:34:16.427Z,0
2017-10-10T02:35:17.167Z,0
2017-10-10T02:36:16.733Z,0
2017-10-10T02:37:17.052Z,0
2017-10-10T02:38:17.144Z,0
2017-10-10T02:39:16.716Z,0
2017-10-10T02:40:17.037Z,0
2017-10-10T02:41:17.119Z,0
2017-10-10T02:42:16.691Z,0
2017-10-10T02:43:16.683Z,0
2017-10-10T02:44:16.679Z,0
2017-10-10T02:45:17.000Z,0
2017-10-10T02:46:16.770Z,0
2017-10-10T02:47:16.985Z,0
2017-10-10T02:48:17.300Z,0
2017-10-10T02:49:16.965Z,0
2017-10-10T02:50:16.306Z,0
2017-10-10T02:51:16.626Z,0
2017-10-10T02:52:16.941Z,0
2017-10-10T02:53:16.616Z,0
2017-10-10T02:54:16.936Z,0
2017-10-10T02:55:16.597Z,0
2017-10-10T02:56:17.024Z,0
2017-10-10T02:57:17.013Z,0
2017-10-10T02:58:16.902Z,0
2017-10-10T02:59:16.566Z,0
2017-10-10T03:00:17.309Z,0
2017-10-10T03:01:16.558Z,0
2017-10-10T03:02:16.241Z,0
2017-10-10T03:03:16.964Z,0
2017-10-10T03:04:16.532Z,0
2017-10-10T03:05:17.166Z,0
2017-10-10T03:06:16.940Z,0
2017-10-10T03:07:16.514Z,0
2017-10-10T03:08:16.604Z,0
2017-10-10T03:09:16.507Z,0
2017-10-10T03:10:16.489Z,0
2017-10-10T03:11:16.583Z,0
2017-10-10T03:12:16.896Z,0
2017-10-10T03:13:16.990Z,0
2017-10-10T03:14:16.138Z,0
2017-10-10T03:15:17.104Z,0
2017-10-10T03:16:17.195Z,0
2017-10-10T03:17:16.540Z,0
2017-10-10T03:18:16.860Z,0
2017-10-10T03:19:16.199Z,0
2017-10-10T03:20:17.064Z,0
2017-10-10T03:21:16.410Z,0
2017-10-10T03:22:16.401Z,0
2017-10-10T03:23:16.716Z,0
2017-10-10T03:24:16.163Z,0
2017-10-10T03:25:16.057Z,0
2017-10-10T03:26:17.019Z,0
2017-10-10T03:27:17.011Z,0
2017-10-10T03:28:16.680Z,0
2017-10-10T03:29:16.352Z,0
2017-10-10T03:30:16.456Z,0
2017-10-10T03:31:16.666Z,0
2017-10-10T03:32:16.652Z,0
2017-10-10T03:33:16.319Z,0
2017-10-10T03:34:16.963Z,0
2017-10-10T03:35:16.086Z,0
2017-10-10T03:36:16.400Z,0
2017-10-10T03:37:16.290Z,0
2017-10-10T03:38:16.614Z,0
2017-10-10T03:39:15.958Z,0
2017-10-10T03:40:16.272Z,0
2017-10-10T03:41:16.684Z,0
2017-10-10T03:42:16.255Z,0
2017-10-10T03:43:16.667Z,0
2017-10-10T03:44:16.345Z,0
2017-10-10T03:45:17.095Z,0
2017-10-10T03:46:16.652Z,0
2017-10-10T03:47:16.547Z,0
2017-10-10T03:48:16.536Z,0
2017-10-10T03:49:16.208Z,0
2017-10-10T03:50:16.845Z,0
2017-10-10T03:51:16.389Z,0
2017-10-10T03:52:15.959Z,0
2017-10-10T03:53:16.604Z,0
2017-10-10T03:54:16.822Z,0
2017-10-10T03:55:16.159Z,0
2017-10-10T03:56:16.484Z,0
2017-10-10T03:57:16.571Z,0
2017-10-10T03:58:16.138Z,0
2017-10-10T03:59:16.128Z,0
2017-10-10T04:00:16.543Z,0
2017-10-10T04:01:16.491Z,0
2017-10-10T04:02:16.109Z,0
2017-10-10T04:03:15.778Z,0
2017-10-10T04:04:16.095Z,0
2017-10-10T04:05:16.525Z,0
2017-10-10T04:06:16.513Z,0
2017-10-10T04:07:16.072Z,0
2017-10-10T04:08:16.815Z,0
2017-10-10T04:09:16.390Z,0
2017-10-10T04:10:16.473Z,0
2017-10-10T04:11:16.145Z,0
2017-10-10T04:12:16.139Z,0
2017-10-10T04:13:16.030Z,0
2017-10-10T04:14:16.022Z,0
2017-10-10T04:15:16.345Z,0
2017-10-10T04:16:16.006Z,0
2017-10-10T04:17:16.001Z,0
2017-10-10T04:18:16.096Z,0
2017-10-10T04:19:15.660Z,0
2017-10-10T04:20:15.976Z,0
2017-10-10T04:21:15.746Z,0
2017-10-10T04:22:16.292Z,0
2017-10-10T04:23:15.632Z,0
2017-10-10T04:24:15.628Z,0
2017-10-10T04:25:15.717Z,0
2017-10-10T04:26:16.264Z,0
2017-10-10T04:27:16.576Z,0
2017-10-10T04:28:16.246Z,0
2017-10-10T04:29:16.256Z,0
2017-10-10T04:30:15.679Z,0
2017-10-10T04:31:16.326Z,0
2017-10-10T04:32:16.534Z,0
2017-10-10T04:33:15.893Z,0
2017-10-10T04:34:16.301Z,0
2017-10-10T04:35:15.868Z,0
2017-10-10T04:36:15.536Z,0
2017-10-10T04:37:15.628Z,0
2017-10-10T04:38:15.522Z,0
2017-10-10T04:39:15.936Z,0
2017-10-10T04:40:16.032Z,0
2017-10-10T04:41:16.148Z,0
2017-10-10T04:42:15.492Z,0
2017-10-10T04:43:16.454Z,0
2017-10-10T04:44:16.228Z,0
2017-10-10T04:45:15.792Z,0
2017-10-10T04:46:15.788Z,0
2017-10-10T04:47:16.111Z,0
2017-10-10T04:48:16.222Z,0
2017-10-10T04:49:16.086Z,0
2017-10-10T04:50:16.405Z,0
2017-10-10T04:51:15.427Z,0
2017-10-10T04:52:15.741Z,0
2017-10-10T04:53:16.393Z,0
2017-10-10T04:54:16.064Z,0
2017-10-10T04:55:15.720Z,0
2017-10-10T04:56:16.308Z,0
2017-10-10T04:57:16.038Z,0
2017-10-10T04:58:15.696Z,0
2017-10-10T04:59:16.018Z,0
2017-10-10T05:00:15.683Z,0
2017-10-10T05:01:15.783Z,0
2017-10-10T05:02:15.676Z,0
2017-10-10T05:03:15.663Z,0
2017-10-10T05:04:15.431Z,0
2017-10-10T05:05:16.322Z,0
2017-10-10T05:06:15.418Z,0
2017-10-10T05:07:15.311Z,0
2017-10-10T05:08:16.114Z,0
2017-10-10T05:09:16.141Z,0
2017-10-10T05:10:16.356Z,0
2017-10-10T05:11:16.029Z,0
2017-10-10T05:12:15.599Z,0
2017-10-10T05:13:15.927Z,0
2017-10-10T05:14:15.680Z,0
2017-10-10T05:15:15.452Z,0
2017-10-10T05:16:15.567Z,0
2017-10-10T05:17:15.562Z,0
2017-10-10T05:18:15.559Z,0
2017-10-10T05:19:15.545Z,4
2017-10-10T05:20:15.312Z,4
2017-10-10T05:21:16.307Z,4
2017-10-10T05:22:15.525Z,0
2017-10-10T05:23:15.513Z,0
2017-10-10T05:24:15.507Z,4
2017-10-10T05:25:15.506Z,4
2017-10-10T05:26:15.590Z,4
2017-10-10T05:27:15.486Z,0
2017-10-10T05:28:15.477Z,4
2017-10-10T05:29:15.899Z,4
2017-10-10T05:30:15.790Z,4
2017-10-10T05:31:15.231Z,8
2017-10-10T05:32:15.449Z,4
2017-10-10T05:33:16.088Z,8
2017-10-10T05:34:15.757Z,8
2017-10-10T05:35:15.848Z,8
2017-10-10T05:36:15.430Z,12
2017-10-10T05:37:15.739Z,12
2017-10-10T05:38:15.405Z,16
2017-10-10T05:39:15.502Z,16
2017-10-10T05:40:15.714Z,16
2017-10-10T05:41:15.833Z,16
2017-10-10T05:42:15.372Z,20
2017-10-10T05:43:15.688Z,16
2017-10-10T05:44:15.037Z,20
2017-10-10T05:45:15.365Z,20
2017-10-10T05:46:15.447Z,24
2017-10-10T05:47:15.113Z,28
2017-10-10T05:48:15.434Z,28
2017-10-10T05:49:14.997Z,28
2017-10-10T05:50:15.645Z,32
2017-10-10T05:51:15.507Z,32
2017-10-10T05:52:15.730Z,32
2017-10-10T05:53:15.290Z,32
2017-10-10T05:54:15.934Z,36
2017-10-10T05:55:15.604Z,36
2017-10-10T05:56:16.024Z,36
2017-10-10T05:57:15.586Z,40
2017-10-10T05:58:15.591Z,36
2017-10-10T05:59:15.575Z,40
2017-10-10T06:00:15.547Z,40
2017-10-10T06:01:15.217Z,40
2017-10-10T06:02:15.855Z,44
2017-10-10T06:03:15.304Z,52
2017-10-10T06:04:15.526Z,52
2017-10-10T06:05:15.860Z,56
2017-10-10T06:06:15.283Z,56
2017-10-10T06:07:15.645Z,56
2017-10-10T06:08:15.908Z,56
2017-10-10T06:09:15.156Z,60
2017-10-10T06:10:14.836Z,64
2017-10-10T06:11:15.475Z,68
2017-10-10T06:12:15.242Z,76
2017-10-10T06:13:15.460Z,84
2017-10-10T06:14:15.543Z,84
2017-10-10T06:15:14.793Z,88
2017-10-10T06:16:15.751Z,92
2017-10-10T06:17:15.200Z,92
2017-10-10T06:18:15.410Z,96
2017-10-10T06:19:15.513Z,96
2017-10-10T06:20:15.394Z,100
2017-10-10T06:21:14.748Z,96
2017-10-10T06:22:14.845Z,100
2017-10-10T06:23:15.157Z,100
2017-10-10T06:24:15.470Z,104
2017-10-10T06:25:15.569Z,112
2017-10-10T06:26:15.364Z,116
2017-10-10T06:27:15.127Z,120
2017-10-10T06:28:15.026Z,124
2017-10-10T06:29:15.749Z,128
2017-10-10T06:30:15.048Z,128
2017-10-10T06:31:15.320Z,132
2017-10-10T06:32:15.734Z,136
2017-10-10T06:33:14.660Z,140
2017-10-10T06:34:15.626Z,148
2017-10-10T06:35:15.290Z,156
2017-10-10T06:36:15.060Z,160
2017-10-10T06:37:15.272Z,164
2017-10-10T06:38:14.951Z,164
2017-10-10T06:39:14.616Z,164
2017-10-10T06:40:14.932Z,168
2017-10-10T06:41:15.252Z,168
2017-10-10T06:42:15.081Z,172
2017-10-10T06:43:15.334Z,180
2017-10-10T06:44:14.680Z,180
2017-10-10T06:45:14.890Z,180
2017-10-10T06:46:15.211Z,180
2017-10-10T06:47:14.881Z,180
2017-10-10T06:48:14.972Z,188
2017-10-10T06:49:15.185Z,192
2017-10-10T06:50:14.635Z,200
2017-10-10T06:51:15.056Z,200
2017-10-10T06:52:14.840Z,216
2017-10-10T06:53:14.511Z,228
2017-10-10T06:54:14.824Z,228
2017-10-10T06:55:14.818Z,236
2017-10-10T06:56:14.488Z,240
2017-10-10T06:57:15.470Z,248
2017-10-10T06:58:15.220Z,256
2017-10-10T06:59:14.948Z,260
2017-10-10T07:00:14.783Z,264
2017-10-10T07:01:15.097Z,268
2017-10-10T07:02:15.190Z,268
2017-10-10T07:03:14.768Z,268
2017-10-10T07:04:14.953Z,264
2017-10-10T07:05:14.434Z,260
2017-10-10T07:06:15.160Z,268
2017-10-10T07:07:15.371Z,268
2017-10-10T07:08:15.150Z,260
2017-10-10T07:09:15.186Z,256
2017-10-10T07:10:15.034Z,256
2017-10-10T07:11:14.702Z,260
2017-10-10T07:12:15.124Z,264
2017-10-10T07:13:14.686Z,260
2017-10-10T07:14:15.102Z,256
2017-10-10T07:15:14.996Z,252
2017-10-10T07:16:15.088Z,256
2017-10-10T07:17:14.978Z,276
2017-10-10T07:18:14.971Z,280
2017-10-10T07:19:15.116Z,288
2017-10-10T07:20:14.954Z,288
2017-10-10T07:21:14.949Z,296
2017-10-10T07:22:14.625Z,300
2017-10-10T07:23:14.293Z,304
2017-10-10T07:24:14.928Z,296
2017-10-10T07:25:14.602Z,292
2017-10-10T07:26:14.591Z,300
2017-10-10T07:27:14.588Z,296
2017-10-10T07:28:14.256Z,292
2017-10-10T07:29:14.895Z,288
2017-10-10T07:30:14.563Z,284
2017-10-10T07:31:14.656Z,280
2017-10-10T07:32:15.293Z,272
2017-10-10T07:33:14.968Z,264
2017-10-10T07:34:15.185Z,280
2017-10-10T07:35:14.855Z,288
2017-10-10T07:36:14.960Z,300
2017-10-10T07:37:14.835Z,312
2017-10-10T07:38:14.822Z,348
2017-10-10T07:39:14.916Z,368
2017-10-10T07:40:14.811Z,384
2017-10-10T07:41:14.805Z,424
2017-10-10T07:42:14.996Z,440
2017-10-10T07:43:14.466Z,452
2017-10-10T07:44:14.783Z,432
2017-10-10T07:45:14.462Z,444
2017-10-10T07:46:14.763Z,472
2017-10-10T07:47:14.536Z,500
2017-10-10T07:48:14.432Z,532
2017-10-10T07:49:14.524Z,536
2017-10-10T07:50:14.736Z,548
2017-10-10T07:51:14.085Z,552
2017-10-10T07:52:14.875Z,576
2017-10-10T07:53:14.822Z,592
2017-10-10T07:54:14.387Z,600
2017-10-10T07:55:14.700Z,620
2017-10-10T07:56:14.696Z,664
2017-10-10T07:57:14.788Z,692
2017-10-10T07:58:14.134Z,708
2017-10-10T07:59:14.352Z,712
2017-10-10T08:00:15.087Z,716
2017-10-10T08:01:14.664Z,696
2017-10-10T08:02:14.326Z,696
2017-10-10T08:03:14.000Z,680
2017-10-10T08:04:14.642Z,660
2017-10-10T08:05:14.726Z,648
2017-10-10T08:06:15.037Z,600
2017-10-10T08:07:14.617Z,564
2017-10-10T08:08:14.616Z,552
2017-10-10T08:09:14.056Z,548
2017-10-10T08:10:14.369Z,540
2017-10-10T08:11:13.941Z,548
2017-10-10T08:12:14.575Z,556
2017-10-10T08:13:14.357Z,568
2017-10-10T08:14:14.020Z,572
2017-10-10T08:15:14.238Z,564
2017-10-10T08:16:14.232Z,584
2017-10-10T08:17:13.908Z,612
2017-10-10T08:18:14.636Z,632
2017-10-10T08:19:14.306Z,640
2017-10-10T08:20:14.621Z,668
2017-10-10T08:21:14.513Z,684
2017-10-10T08:22:13.860Z,776
2017-10-10T08:23:14.500Z,772
2017-10-10T08:24:14.275Z,756
2017-10-10T08:25:14.484Z,720
2017-10-10T08:26:14.474Z,716
2017-10-10T08:27:14.148Z,708
2017-10-10T08:28:14.135Z,740
2017-10-10T08:29:13.814Z,740
2017-10-10T08:30:14.278Z,768
2017-10-10T08:31:13.811Z,760
2017-10-10T08:32:14.110Z,768
2017-10-10T08:33:14.204Z,784
2017-10-10T08:34:14.203Z,816
2017-10-10T08:35:14.092Z,868
2017-10-10T08:36:14.930Z,908
2017-10-10T08:37:13.753Z,932
2017-10-10T08:38:14.809Z,964
2017-10-10T08:39:14.481Z,1000
2017-10-10T08:40:14.375Z,1032
2017-10-10T08:41:13.823Z,1024
2017-10-10T08:42:13.717Z,1004
2017-10-10T08:43:13.812Z,968
2017-10-10T08:44:14.172Z,916
2017-10-10T08:45:14.453Z,872
2017-10-10T08:46:14.337Z,860
2017-10-10T08:47:14.329Z,840
2017-10-10T08:48:14.652Z,844
2017-10-10T08:49:14.421Z,820
2017-10-10T08:50:14.410Z,800
2017-10-10T08:51:13.973Z,796
2017-10-10T08:52:14.423Z,792
2017-10-10T08:53:14.605Z,776
2017-10-10T08:54:13.637Z,768
2017-10-10T08:55:14.599Z,784
2017-10-10T08:56:14.359Z,788
2017-10-10T08:57:13.931Z,780
2017-10-10T08:58:13.924Z,772
2017-10-10T08:59:14.247Z,760
2017-10-10T09:00:13.907Z,732
2017-10-10T09:01:14.225Z,708
2017-10-10T09:02:14.196Z,700
2017-10-10T09:03:14.217Z,696
2017-10-10T09:04:13.881Z,740
2017-10-10T09:05:13.977Z,764
2017-10-10T09:06:14.196Z,732
2017-10-10T09:07:14.385Z,732
2017-10-10T09:08:14.620Z,780
2017-10-10T09:09:13.528Z,856
2017-10-10T09:10:13.938Z,880
2017-10-10T09:11:13.831Z,828
2017-10-10T09:12:14.148Z,796
2017-10-10T09:13:14.024Z,772
2017-10-10T09:14:13.808Z,808
2017-10-10T09:15:13.804Z,860
2017-10-10T09:16:14.148Z,840
2017-10-10T09:17:13.790Z,720
2017-10-10T09:18:14.529Z,664
2017-10-10T09:19:13.772Z,604
2017-10-10T09:20:13.772Z,604
2017-10-10T09:21:14.420Z,640
2017-10-10T09:22:13.432Z,708
2017-10-10T09:23:13.952Z,728
2017-10-10T09:24:13.518Z,744
2017-10-10T09:25:14.052Z,820
2017-10-10T09:26:13.728Z,920
2017-10-10T09:27:14.361Z,1044
2017-10-10T09:28:14.137Z,1032
2017-10-10T09:29:14.024Z,976
2017-10-10T09:30:14.021Z,1144
2017-10-10T09:31:13.698Z,1204
2017-10-10T09:32:14.106Z,1052
2017-10-10T09:33:14.320Z,996
2017-10-10T09:34:13.449Z,884
2017-10-10T09:35:13.671Z,680
2017-10-10T09:36:13.751Z,632
2017-10-10T09:37:13.981Z,588
2017-10-10T09:38:13.840Z,536
2017-10-10T09:39:13.313Z,488
2017-10-10T09:40:13.948Z,468
2017-10-10T09:41:13.625Z,440
2017-10-10T09:42:13.615Z,428
2017-10-10T09:43:14.027Z,404
2017-10-10T09:44:13.600Z,388
2017-10-10T09:45:14.115Z,388
2017-10-10T09:46:13.260Z,388
2017-10-10T09:47:13.575Z,392
2017-10-10T09:48:13.669Z,428
2017-10-10T09:49:13.239Z,444
2017-10-10T09:50:13.653Z,532
2017-10-10T09:51:13.561Z,580
2017-10-10T09:52:13.863Z,628
2017-10-10T09:53:13.531Z,636
2017-10-10T09:54:13.950Z,636
2017-10-10T09:55:14.163Z,652
2017-10-10T09:56:14.159Z,664
2017-10-10T09:57:13.184Z,696
2017-10-10T09:58:13.505Z,716
2017-10-10T09:59:13.595Z,688
2017-10-10T10:00:13.911Z,664
2017-10-10T10:01:13.479Z,652
2017-10-10T10:02:13.472Z,652
2017-10-10T10:03:13.887Z,652
2017-10-10T10:04:13.775Z,660
2017-10-10T10:05:13.558Z,668
2017-10-10T10:06:13.765Z,664
2017-10-10T10:07:13.439Z,652
2017-10-10T10:08:13.528Z,640
2017-10-10T10:09:13.097Z,644
2017-10-10T10:10:13.091Z,652
2017-10-10T10:11:13.727Z,648
2017-10-10T10:12:13.398Z,652
2017-10-10T10:13:13.714Z,652
2017-10-10T10:14:13.391Z,648
2017-10-10T10:15:14.021Z,652
2017-10-10T10:16:13.373Z,660
2017-10-10T10:17:13.687Z,664
2017-10-10T10:18:13.356Z,664
2017-10-10T10:19:13.667Z,680
2017-10-10T10:20:13.123Z,672
2017-10-10T10:21:13.664Z,676
2017-10-10T10:22:13.970Z,664
2017-10-10T10:23:13.645Z,656
2017-10-10T10:24:13.633Z,652
2017-10-10T10:25:13.946Z,636
2017-10-10T10:26:13.622Z,620
2017-10-10T10:27:13.712Z,636
2017-10-10T10:28:13.286Z,632
2017-10-10T10:29:13.600Z,644
2017-10-10T10:30:14.020Z,648
2017-10-10T10:31:13.268Z,648
2017-10-10T10:32:13.257Z,652
2017-10-10T10:33:12.929Z,592
2017-10-10T10:34:13.344Z,672
2017-10-10T10:35:13.015Z,656
2017-10-10T10:36:12.917Z,696
2017-10-10T10:37:13.548Z,732
2017-10-10T10:38:13.211Z,800
2017-10-10T10:39:13.632Z,800
2017-10-10T10:40:13.305Z,708
2017-10-10T10:41:13.665Z,664
2017-10-10T10:42:12.862Z,660
2017-10-10T10:43:13.604Z,644
2017-10-10T10:44:13.172Z,656
2017-10-10T10:45:13.586Z,692
2017-10-10T10:46:13.162Z,716
2017-10-10T10:47:13.254Z,740
2017-10-10T10:48:13.463Z,900
2017-10-10T10:49:13.787Z,1052
2017-10-10T10:50:13.331Z,1040
2017-10-10T10:51:13.125Z,1112
2017-10-10T10:52:13.117Z,1196
2017-10-10T10:53:13.430Z,1452
2017-10-10T10:54:13.423Z,1736
2017-10-10T10:55:13.736Z,1564
2017-10-10T10:56:13.610Z,1684
2017-10-10T10:57:13.733Z,1508
2017-10-10T10:58:13.541Z,1512
2017-10-10T10:59:13.068Z,1556
2017-10-10T11:00:13.380Z,1492
2017-10-10T11:01:13.479Z,1480
2017-10-10T11:02:13.367Z,1492
2017-10-10T11:03:13.038Z,1592
2017-10-10T11:04:13.363Z,1380
2017-10-10T11:05:13.665Z,1384
2017-10-10T11:06:13.766Z,1472
2017-10-10T11:07:13.652Z,1564
2017-10-10T11:08:13.852Z,1524
2017-10-10T11:09:12.996Z,1476
2017-10-10T11:10:13.317Z,1424
2017-10-10T11:11:13.636Z,1400
2017-10-10T11:12:13.298Z,1384
2017-10-10T11:13:13.495Z,1368
2017-10-10T11:14:12.967Z,1408
2017-10-10T11:15:13.279Z,1428
2017-10-10T11:16:13.278Z,1468
2017-10-10T11:17:13.041Z,1416
2017-10-10T11:18:13.039Z,1372
2017-10-10T11:19:13.572Z,1336
2017-10-10T11:20:12.930Z,1312
2017-10-10T11:21:13.236Z,1348
2017-10-10T11:22:13.229Z,1264
2017-10-10T11:23:13.419Z,1292
2017-10-10T11:24:12.898Z,1332
2017-10-10T11:25:13.319Z,1304
2017-10-10T11:26:13.301Z,1248
2017-10-10T11:27:12.888Z,1216
2017-10-10T11:28:12.644Z,1272
2017-10-10T11:29:13.519Z,1360
2017-10-10T11:30:13.180Z,1416
2017-10-10T11:31:12.844Z,1484
2017-10-10T11:32:12.939Z,1460
2017-10-10T11:33:12.939Z,1356
2017-10-10T11:34:13.157Z,1420
2017-10-10T11:35:12.821Z,1320
2017-10-10T11:36:13.134Z,1168
2017-10-10T11:37:13.222Z,1196
2017-10-10T11:38:13.542Z,1276
2017-10-10T11:39:12.668Z,1308
2017-10-10T11:40:13.426Z,1364
2017-10-10T11:41:13.443Z,1292
2017-10-10T11:42:12.966Z,1100
2017-10-10T11:43:13.081Z,972
2017-10-10T11:44:13.176Z,1016
2017-10-10T11:45:13.175Z,1240
2017-10-10T11:46:13.382Z,1596
2017-10-10T11:47:13.155Z,1864
2017-10-10T11:48:13.372Z,2096
2017-10-10T11:49:12.881Z,2096
2017-10-10T11:50:12.715Z,2000
2017-10-10T11:51:12.704Z,1812
2017-10-10T11:52:12.853Z,1680
2017-10-10T11:53:13.025Z,1700
2017-10-10T11:54:13.432Z,1604
2017-10-10T11:55:12.780Z,1536
2017-10-10T11:56:12.450Z,1456
2017-10-10T11:57:12.818Z,1340
2017-10-10T11:58:12.760Z,1264
2017-10-10T11:59:13.087Z,1160
2017-10-10T12:00:12.323Z,1264
2017-10-10T12:01:12.639Z,1476
2017-10-10T12:02:12.958Z,1568
2017-10-10T12:03:13.052Z,1468
2017-10-10T12:04:12.816Z,1720
2017-10-10T12:05:13.040Z,2124
2017-10-10T12:06:13.025Z,2144
2017-10-10T12:07:12.595Z,1812
2017-10-10T12:08:12.590Z,1808
2017-10-10T12:09:12.693Z,1688
2017-10-10T12:10:12.896Z,1608
2017-10-10T12:11:12.892Z,1484
2017-10-10T12:12:12.888Z,1428
2017-10-10T12:13:12.881Z,1460
2017-10-10T12:14:12.695Z,1492
2017-10-10T12:15:13.189Z,1460
2017-10-10T12:16:12.633Z,1340
2017-10-10T12:17:12.855Z,1204
2017-10-10T12:18:12.300Z,1100
2017-10-10T12:19:12.839Z,1080
2017-10-10T12:20:12.183Z,1084
2017-10-10T12:21:13.249Z,1140
2017-10-10T12:22:12.813Z,1208
2017-10-10T12:23:12.164Z,1368
2017-10-10T12:24:12.805Z,1412
2017-10-10T12:25:12.250Z,1568
2017-10-10T12:26:12.787Z,1672
2017-10-10T12:27:12.885Z,1776
2017-10-10T12:28:13.094Z,1752
2017-10-10T12:29:12.763Z,1664
2017-10-10T12:30:12.764Z,1608
2017-10-10T12:31:12.208Z,1624
2017-10-10T12:32:12.747Z,1576
2017-10-10T12:33:12.419Z,1540
2017-10-10T12:34:12.508Z,1496
2017-10-10T12:35:12.503Z,1452
2017-10-10T12:36:12.720Z,1504
2017-10-10T12:37:12.715Z,1468
2017-10-10T12:38:12.488Z,1456
2017-10-10T12:39:12.378Z,1408
2017-10-10T12:40:13.023Z,1396
2017-10-10T12:41:12.302Z,1356
2017-10-10T12:42:12.687Z,1308
2017-10-10T12:43:12.675Z,1344
2017-10-10T12:44:12.023Z,1380
2017-10-10T12:45:12.338Z,1552
2017-10-10T12:46:12.431Z,1712
2017-10-10T12:47:12.646Z,1816
2017-10-10T12:48:11.995Z,1804
2017-10-10T12:49:12.086Z,1976
2017-10-10T12:50:12.951Z,2104
2017-10-10T12:51:11.976Z,2156
2017-10-10T12:52:12.295Z,2176
2017-10-10T12:53:12.607Z,1896
2017-10-10T12:54:12.372Z,1792
2017-10-10T12:55:12.271Z,1752
2017-10-10T12:56:12.269Z,1744
2017-10-10T12:57:12.580Z,1740
2017-10-10T12:58:12.397Z,1636
2017-10-10T12:59:12.341Z,1484
2017-10-10T13:00:12.235Z,1300
2017-10-10T13:01:12.329Z,1092
2017-10-10T13:02:11.900Z,940
2017-10-10T13:03:12.573Z,836
2017-10-10T13:04:12.207Z,788
2017-10-10T13:05:12.733Z,780
2017-10-10T13:06:12.840Z,816
2017-10-10T13:07:12.190Z,860
2017-10-10T13:08:12.183Z,892
2017-10-10T13:09:12.504Z,948
2017-10-10T13:10:11.947Z,976
2017-10-10T13:11:12.274Z,960
2017-10-10T13:12:12.901Z,880
2017-10-10T13:13:12.900Z,848
2017-10-10T13:14:12.460Z,796
2017-10-10T13:15:12.796Z,776
2017-10-10T13:16:12.231Z,768
2017-10-10T13:17:12.452Z,804
2017-10-10T13:18:12.113Z,840
2017-10-10T13:19:12.450Z,900
2017-10-10T13:20:12.101Z,972
2017-10-10T13:21:12.097Z,1052
2017-10-10T13:22:12.092Z,1084
2017-10-10T13:23:12.408Z,1188
2017-10-10T13:24:12.719Z,1332
2017-10-10T13:25:12.178Z,1396
2017-10-10T13:26:12.380Z,1448
2017-10-10T13:27:11.832Z,1472
2017-10-10T13:28:12.372Z,1536
2017-10-10T13:29:12.689Z,1568
2017-10-10T13:30:12.036Z,1628
2017-10-10T13:31:12.672Z,1632
2017-10-10T13:32:12.121Z,1592
2017-10-10T13:33:12.113Z,1632
2017-10-10T13:34:11.687Z,1548
2017-10-10T13:35:11.998Z,1496
2017-10-10T13:36:12.426Z,1456
2017-10-10T13:37:12.307Z,1496
2017-10-10T13:38:12.411Z,1584
2017-10-10T13:39:11.652Z,1608
2017-10-10T13:40:11.964Z,1460
2017-10-10T13:41:12.290Z,1420
2017-10-10T13:42:11.958Z,1328
2017-10-10T13:43:12.695Z,1240
2017-10-10T13:44:12.362Z,1232
2017-10-10T13:45:11.711Z,1200
2017-10-10T13:46:11.928Z,1268
2017-10-10T13:47:11.945Z,1352
2017-10-10T13:48:11.916Z,1332
2017-10-10T13:49:11.906Z,1304
2017-10-10T13:50:12.223Z,1204
2017-10-10T13:51:12.217Z,1216
2017-10-10T13:52:11.566Z,1204
2017-10-10T13:53:12.210Z,1228
2017-10-10T13:54:12.193Z,1268
2017-10-10T13:55:11.548Z,1196
2017-10-10T13:56:11.962Z,1272
2017-10-10T13:57:11.634Z,1332
2017-10-10T13:58:12.169Z,1244
2017-10-10T13:59:11.938Z,1304
2017-10-10T14:00:11.512Z,1356
2017-10-10T14:01:11.940Z,1332
2017-10-10T14:02:12.515Z,1248
2017-10-10T14:03:11.818Z,1168
2017-10-10T14:04:11.586Z,1204